createdAt,value
2023-01-19T00:01:56.861Z,16.50
2023-01-19T00:04:27.708Z,17.60
2023-01-19T00:06:58.113Z,19.90
2023-01-19T00:09:33.482Z,17.20
2023-01-19T00:12:04.007Z,18.50
2023-01-19T00:14:34.669Z,18.80
2023-01-19T00:17:05.098Z,16.10
2023-01-19T00:19:35.507Z,16.70
2023-01-19T00:22:06.566Z,16.50
2023-01-19T00:24:37.231Z,17.30
2023-01-19T00:27:07.745Z,18.90
2023-01-19T00:29:38.189Z,17.40
2023-01-19T00:32:09.265Z,20.50
2023-01-19T00:34:42.764Z,17.90
2023-01-19T00:37:13.261Z,19.70
2023-01-19T00:39:43.957Z,18.60
2023-01-19T00:42:32.733Z,19.40
2023-01-19T00:45:03.162Z,19.20
2023-01-19T00:47:33.563Z,17.70
2023-01-19T00:50:04.521Z,18.60
2023-01-19T00:52:35.200Z,18.10
2023-01-19T00:55:06.759Z,19.40
2023-01-19T00:57:37.251Z,18.90
2023-01-19T01:00:11.694Z,17.40
2023-01-19T01:02:44.391Z,17.80
2023-01-19T01:05:15.935Z,16.40
2023-01-19T01:07:49.618Z,16.60
2023-01-19T01:10:22.788Z,15.80
2023-01-19T01:12:57.590Z,17.40
2023-01-19T01:15:44.131Z,17.70
2023-01-19T01:18:14.593Z,17.70
2023-01-19T01:20:45.038Z,13.40
2023-01-19T01:23:16.127Z,11.70
2023-01-19T01:25:46.667Z,10.30
2023-01-19T01:28:17.086Z,10.30
2023-01-19T01:30:47.566Z,9.50
2023-01-19T01:33:40.009Z,7.70
2023-01-19T01:36:10.280Z,6.80
2023-01-19T01:38:40.774Z,7.40
2023-01-19T01:41:11.833Z,8.10
2023-01-19T01:43:47.731Z,6.80
2023-01-19T01:46:20.022Z,6.00
2023-01-19T01:51:29.096Z,4.70
2023-01-19T01:54:07.815Z,5.00
2023-01-19T01:59:13.163Z,4.60
2023-01-19T02:02:01.145Z,5.40
2023-01-19T02:04:32.693Z,5.00
2023-01-19T02:07:20.833Z,5.10
2023-01-19T02:10:09.854Z,5.10
2023-01-19T02:12:58.488Z,4.70
2023-01-19T02:15:29.218Z,4.60
2023-01-19T02:17:59.741Z,4.70
2023-01-19T02:20:32.744Z,4.90
2023-01-19T02:23:08.444Z,4.10
2023-01-19T02:25:40.638Z,4.50
2023-01-19T02:28:11.914Z,5.10
2023-01-19T02:30:43.733Z,4.50
2023-01-19T02:33:14.187Z,4.50
2023-01-19T02:35:45.857Z,4.10
2023-01-19T02:38:19.025Z,4.10
2023-01-19T02:40:50.856Z,3.90
2023-01-19T02:43:23.641Z,4.00
2023-01-19T02:45:54.631Z,3.80
2023-01-19T02:48:25.499Z,4.30
2023-01-19T02:51:00.963Z,3.80
2023-01-19T02:53:54.329Z,3.80
2023-01-19T02:56:39.709Z,3.50
2023-01-19T02:59:24.479Z,3.50
2023-01-19T03:02:11.917Z,3.20
2023-01-19T03:04:56.478Z,3.00
2023-01-19T03:07:38.157Z,3.30
2023-01-19T03:10:16.746Z,3.50
2023-01-19T03:12:51.881Z,3.00
2023-01-19T03:15:28.652Z,3.50
2023-01-19T03:18:01.992Z,3.50
2023-01-19T03:20:33.278Z,3.50
2023-01-19T03:23:08.276Z,3.80
2023-01-19T03:25:43.610Z,3.70
2023-01-19T03:28:17.959Z,3.60
2023-01-19T03:30:57.786Z,3.80
2023-01-19T03:33:33.248Z,3.70
2023-01-19T03:36:09.677Z,3.30
2023-01-19T03:38:42.980Z,4.20
2023-01-19T03:41:16.769Z,4.00
2023-01-19T03:43:50.461Z,3.50
2023-01-19T03:46:22.868Z,3.90
2023-01-19T03:51:23.718Z,4.10
2023-01-19T03:53:54.160Z,4.30
2023-01-19T03:56:26.532Z,4.50
2023-01-19T04:01:27.632Z,4.30
2023-01-19T04:03:58.232Z,3.50
2023-01-19T04:06:28.725Z,4.70
2023-01-19T04:08:59.169Z,4.50
2023-01-19T04:11:29.701Z,5.40
2023-01-19T04:14:00.422Z,5.70
2023-01-19T04:16:30.856Z,6.10
2023-01-19T04:19:01.272Z,6.20
2023-01-19T04:21:31.688Z,6.60
2023-01-19T04:24:02.129Z,5.70
2023-01-19T04:26:32.597Z,5.40
2023-01-19T04:29:03.032Z,5.60
2023-01-19T04:31:35.644Z,6.10
2023-01-19T04:34:06.252Z,6.30
2023-01-19T04:36:36.677Z,5.00
2023-01-19T04:39:09.014Z,6.00
2023-01-19T04:41:39.616Z,5.80
2023-01-19T04:44:10.208Z,6.30
2023-01-19T04:46:40.668Z,6.10
2023-01-19T04:49:11.530Z,7.30
2023-01-19T04:51:42.083Z,6.90
2023-01-19T04:54:12.614Z,6.70
2023-01-19T04:56:43.072Z,7.90
2023-01-19T04:59:13.957Z,8.00
2023-01-19T05:01:44.432Z,8.10
2023-01-19T05:04:15.020Z,7.80
2023-01-19T05:06:45.545Z,6.40
2023-01-19T05:09:16.608Z,7.50
2023-01-19T05:11:47.293Z,7.50
2023-01-19T05:14:17.752Z,6.90
2023-01-19T05:16:48.217Z,6.90
2023-01-19T05:19:18.638Z,6.70
2023-01-19T05:21:49.251Z,7.00
2023-01-19T05:24:20.285Z,6.60
2023-01-19T05:26:50.694Z,6.50
2023-01-19T05:29:21.179Z,6.30
2023-01-19T05:31:51.688Z,6.40
2023-01-19T05:34:22.482Z,6.30
2023-01-19T05:36:53.435Z,6.20
2023-01-19T05:39:23.900Z,7.10
2023-01-19T05:41:54.362Z,5.50
2023-01-19T05:44:24.804Z,5.70
2023-01-19T05:46:55.610Z,6.70
2023-01-19T05:49:26.171Z,6.30
2023-01-19T05:51:56.574Z,6.90
2023-01-19T05:54:27.000Z,4.80
2023-01-19T05:56:57.774Z,4.60
2023-01-19T05:59:28.299Z,5.00
2023-01-19T06:02:00.081Z,5.00
2023-01-19T06:04:30.684Z,4.80
2023-01-19T06:07:02.268Z,4.50
2023-01-19T06:09:32.763Z,5.40
2023-01-19T06:12:03.294Z,5.40
2023-01-19T06:14:36.991Z,4.70
2023-01-19T06:17:07.977Z,4.20
2023-01-19T06:19:38.440Z,4.70
2023-01-19T06:22:08.960Z,4.30
2023-01-19T06:24:39.866Z,4.00
2023-01-19T06:27:11.232Z,4.00
2023-01-19T06:29:41.749Z,5.40
2023-01-19T06:32:12.171Z,4.70
2023-01-19T06:34:43.856Z,3.90
2023-01-19T06:37:16.188Z,4.40
2023-01-19T06:39:46.641Z,4.40
2023-01-19T06:42:17.071Z,3.70
2023-01-19T06:44:48.187Z,4.30
2023-01-19T06:47:19.341Z,4.60
2023-01-19T06:49:50.066Z,4.90
2023-01-19T06:52:20.809Z,4.50
2023-01-19T06:54:51.243Z,4.50
2023-01-19T06:57:21.667Z,5.10
2023-01-19T06:59:52.281Z,5.00
2023-01-19T07:02:26.929Z,4.90
2023-01-19T07:04:58.505Z,4.50
2023-01-19T07:07:29.302Z,4.40
2023-01-19T07:09:59.779Z,5.50
2023-01-19T07:12:31.406Z,5.40
2023-01-19T07:15:02.113Z,6.30
2023-01-19T07:17:32.645Z,4.30
2023-01-19T07:20:03.132Z,5.60
2023-01-19T07:22:33.704Z,6.10
2023-01-19T07:25:04.868Z,5.80
2023-01-19T07:27:35.307Z,7.00
2023-01-19T07:30:07.271Z,6.20
2023-01-19T07:32:38.098Z,6.20
2023-01-19T07:35:09.966Z,6.40
2023-01-19T07:37:40.394Z,5.60
2023-01-19T07:40:12.983Z,5.50
2023-01-19T07:42:48.801Z,6.50
2023-01-19T07:45:20.416Z,5.70
2023-01-19T07:47:51.804Z,5.90
2023-01-19T07:50:25.507Z,5.80
2023-01-19T07:52:55.977Z,4.90
2023-01-19T07:55:26.749Z,5.30
2023-01-19T07:57:57.392Z,5.50
2023-01-19T08:00:28.241Z,6.00
2023-01-19T08:03:02.351Z,6.50
2023-01-19T08:05:34.144Z,5.70
2023-01-19T08:08:05.584Z,5.80
2023-01-19T08:10:36.332Z,6.40
2023-01-19T08:13:06.806Z,5.90
2023-01-19T08:15:37.723Z,6.00
2023-01-19T08:18:09.789Z,6.40
2023-01-19T08:20:40.310Z,6.70
2023-01-19T08:23:11.616Z,6.70
2023-01-19T08:25:45.046Z,6.90
2023-01-19T08:28:17.124Z,7.20
2023-01-19T08:30:54.154Z,6.70
2023-01-19T08:33:26.103Z,6.50
2023-01-19T08:35:56.653Z,6.40
2023-01-19T08:38:27.085Z,7.10
2023-01-19T08:40:57.553Z,7.40
2023-01-19T08:43:28.036Z,7.70
2023-01-19T08:45:58.796Z,8.30
2023-01-19T08:48:29.442Z,8.50
2023-01-19T08:51:00.369Z,7.60
2023-01-19T08:53:30.987Z,6.70
2023-01-19T08:56:02.312Z,5.90
2023-01-19T08:58:32.735Z,6.40
2023-01-19T09:01:04.243Z,6.70
2023-01-19T09:03:34.948Z,7.20
2023-01-19T09:06:08.515Z,6.30
2023-01-19T09:08:39.365Z,7.10
2023-01-19T09:11:12.763Z,7.20
2023-01-19T09:13:43.634Z,6.70
2023-01-19T09:16:15.899Z,7.20
2023-01-19T09:18:46.785Z,6.50
2023-01-19T09:21:17.208Z,6.80
2023-01-19T09:23:49.202Z,6.70
2023-01-19T09:26:19.743Z,5.20
2023-01-19T09:28:50.218Z,5.60
2023-01-19T09:31:20.814Z,6.50
2023-01-19T09:33:51.446Z,5.90
2023-01-19T09:36:21.962Z,5.60
2023-01-19T09:38:52.393Z,5.20
2023-01-19T09:41:26.102Z,5.10
2023-01-19T09:44:00.388Z,6.00
2023-01-19T09:46:36.932Z,4.90
2023-01-19T09:49:12.926Z,6.20
2023-01-19T09:51:46.058Z,4.60
2023-01-19T09:54:19.003Z,5.10
2023-01-19T09:56:52.839Z,5.90
2023-01-19T09:59:26.122Z,4.20
2023-01-19T10:02:08.819Z,5.30
2023-01-19T10:04:42.788Z,4.70
2023-01-19T10:07:22.675Z,5.40
2023-01-19T10:10:05.919Z,6.20
2023-01-19T10:12:59.672Z,4.70
2023-01-19T10:15:43.229Z,5.20
2023-01-19T10:18:20.808Z,4.30
2023-01-19T10:20:55.483Z,5.70
2023-01-19T10:23:41.750Z,5.10
2023-01-19T10:26:17.511Z,5.50
2023-01-19T10:28:50.919Z,5.40
2023-01-19T10:31:24.680Z,5.00
2023-01-19T10:33:55.513Z,4.80
2023-01-19T10:36:30.545Z,4.10
2023-01-19T10:39:00.959Z,5.10
2023-01-19T10:41:40.450Z,4.70
2023-01-19T10:44:12.124Z,4.40
2023-01-19T10:46:45.707Z,5.70
2023-01-19T10:49:30.096Z,6.00
2023-01-19T10:52:01.665Z,4.80
2023-01-19T10:54:36.336Z,4.70
2023-01-19T10:57:10.770Z,4.40
2023-01-19T10:59:51.015Z,4.90
2023-01-19T11:02:26.704Z,4.80
2023-01-19T11:04:59.482Z,5.50
2023-01-19T11:07:33.304Z,4.90
2023-01-19T11:10:24.401Z,5.10
2023-01-19T11:13:07.700Z,4.80
2023-01-19T11:15:45.093Z,4.00
2023-01-19T11:18:28.532Z,4.40
2023-01-19T11:21:02.289Z,5.20
2023-01-19T11:23:37.659Z,4.30
2023-01-19T11:26:09.415Z,5.10
2023-01-19T11:28:46.540Z,4.70
2023-01-19T11:31:33.858Z,4.20
2023-01-19T11:34:07.154Z,4.30
2023-01-19T11:36:38.477Z,4.60
2023-01-19T11:39:26.499Z,4.30
2023-01-19T11:41:59.792Z,3.80
2023-01-19T11:44:33.660Z,4.10
2023-01-19T11:47:07.044Z,4.30
2023-01-19T11:49:47.762Z,4.40
2023-01-19T11:52:26.951Z,4.20
2023-01-19T11:55:03.275Z,4.00
2023-01-19T11:57:33.949Z,4.30
2023-01-19T12:00:25.428Z,4.30
2023-01-19T12:03:02.059Z,4.70
2023-01-19T12:05:40.447Z,4.10
2023-01-19T12:08:16.779Z,4.60
2023-01-19T12:10:50.305Z,4.50
2023-01-19T12:13:26.462Z,4.50
2023-01-19T12:16:01.251Z,4.20
2023-01-19T12:18:38.060Z,4.40
2023-01-19T12:21:08.719Z,3.80
2023-01-19T12:23:51.920Z,4.30
2023-01-19T12:26:33.199Z,3.80
2023-01-19T12:29:12.712Z,4.70
2023-01-19T12:31:44.227Z,4.00
2023-01-19T12:34:43.421Z,4.20
2023-01-19T12:37:33.459Z,4.50
2023-01-19T12:40:18.559Z,3.90
2023-01-19T12:42:52.958Z,4.80
2023-01-19T12:45:26.613Z,4.70
2023-01-19T12:47:58.116Z,4.60
2023-01-19T12:50:32.235Z,6.40
2023-01-19T12:53:08.284Z,4.60
2023-01-19T12:55:46.863Z,5.30
2023-01-19T12:58:22.701Z,4.40
2023-01-19T13:01:18.381Z,4.60
2023-01-19T13:04:01.994Z,5.40
2023-01-19T13:07:11.005Z,5.40
2023-01-19T13:09:43.287Z,5.90
2023-01-19T13:12:29.031Z,6.00
2023-01-19T13:15:34.957Z,5.80
2023-01-19T13:18:06.163Z,5.30
2023-01-19T13:20:49.146Z,5.40
2023-01-19T13:23:26.045Z,5.40
2023-01-19T13:26:05.018Z,5.00
2023-01-19T13:28:41.099Z,4.70
2023-01-19T13:31:13.147Z,4.90
2023-01-19T13:33:50.227Z,4.80
2023-01-19T13:36:26.796Z,5.80
2023-01-19T13:38:59.136Z,4.90
2023-01-19T13:41:32.999Z,5.20
2023-01-19T13:44:08.614Z,5.40
2023-01-19T13:46:40.695Z,4.90
2023-01-19T13:51:48.294Z,3.80
2023-01-19T13:54:21.358Z,3.90
2023-01-19T13:56:51.891Z,4.30
2023-01-19T13:59:22.305Z,4.60
2023-01-19T14:01:54.367Z,4.50
2023-01-19T14:04:30.543Z,4.10
2023-01-19T14:07:04.651Z,4.20
2023-01-19T14:09:35.081Z,4.10
2023-01-19T14:12:12.981Z,3.70
2023-01-19T14:14:46.838Z,3.70
2023-01-19T14:17:28.794Z,3.70
2023-01-19T14:20:01.087Z,3.90
2023-01-19T14:22:43.584Z,3.50
2023-01-19T14:25:32.350Z,3.70
2023-01-19T14:28:39.311Z,5.50
2023-01-19T14:31:23.052Z,4.20
2023-01-19T14:33:55.256Z,4.30
2023-01-19T14:36:40.317Z,5.10
2023-01-19T14:39:23.426Z,4.40
2023-01-19T14:41:56.176Z,4.40
2023-01-19T14:44:30.697Z,3.50
2023-01-19T14:47:02.186Z,3.50
2023-01-19T14:49:36.448Z,5.10
2023-01-19T14:52:18.465Z,4.70
2023-01-19T14:54:50.358Z,3.90
2023-01-19T14:57:20.960Z,4.10
2023-01-19T14:59:52.415Z,3.60
2023-01-19T15:02:22.976Z,3.70
2023-01-19T15:04:55.424Z,4.10
2023-01-19T15:07:26.771Z,3.60
2023-01-19T15:09:57.272Z,3.90
2023-01-19T15:12:30.568Z,5.00
2023-01-19T15:15:02.299Z,4.50
2023-01-19T15:17:34.137Z,4.20
2023-01-19T15:20:04.847Z,4.20
2023-01-19T15:22:35.780Z,7.90
2023-01-19T15:25:07.904Z,9.50
2023-01-19T15:27:38.446Z,10.50
2023-01-19T15:30:16.947Z,7.30
2023-01-19T15:32:47.920Z,9.00
2023-01-19T15:35:20.987Z,6.80
2023-01-19T15:37:51.763Z,9.50
2023-01-19T15:40:23.433Z,8.00
2023-01-19T15:42:53.899Z,7.90
2023-01-19T15:45:39.365Z,7.60
2023-01-19T15:48:12.063Z,7.80
2023-01-19T15:50:44.507Z,7.40
2023-01-19T15:53:18.385Z,9.00
2023-01-19T15:55:52.313Z,8.20
2023-01-19T15:58:23.549Z,13.60
2023-01-19T16:00:57.933Z,15.50
2023-01-19T16:03:28.843Z,9.20
2023-01-19T16:06:02.289Z,9.30
2023-01-19T16:08:32.828Z,14.40
2023-01-19T16:11:08.576Z,15.50
2023-01-19T16:13:39.327Z,16.40
2023-01-19T16:16:16.024Z,13.90
2023-01-19T16:18:46.536Z,13.80
2023-01-19T16:21:17.369Z,12.40
2023-01-19T16:23:48.023Z,12.50
2023-01-19T16:26:29.079Z,12.70
2023-01-19T16:29:02.129Z,12.60
2023-01-19T16:31:32.618Z,12.60
2023-01-19T16:34:03.200Z,12.80
2023-01-19T16:36:35.264Z,12.50
2023-01-19T16:39:07.877Z,13.60
2023-01-19T16:41:39.196Z,12.40
2023-01-19T16:44:11.377Z,13.10
2023-01-19T16:46:43.845Z,11.50
2023-01-19T16:51:45.754Z,9.00
2023-01-19T16:54:17.631Z,9.50
2023-01-19T16:56:48.430Z,27.70
2023-01-19T16:59:21.048Z,17.80
2023-01-19T17:01:52.222Z,13.10
2023-01-19T17:04:23.908Z,13.10
2023-01-19T17:06:54.403Z,11.70
2023-01-19T17:09:24.876Z,11.10
2023-01-19T17:11:55.366Z,14.10
2023-01-19T17:14:26.026Z,13.40
2023-01-19T17:16:56.498Z,12.40
2023-01-19T17:19:29.784Z,12.40
2023-01-19T17:22:00.178Z,11.90
2023-01-19T17:24:30.648Z,11.40
2023-01-19T17:27:01.251Z,11.10
2023-01-19T17:29:34.836Z,11.20
2023-01-19T17:32:05.656Z,12.70
2023-01-19T17:34:36.204Z,13.60
2023-01-19T17:37:06.736Z,16.60
2023-01-19T17:39:37.511Z,15.60
2023-01-19T17:42:08.075Z,13.70
2023-01-19T17:44:38.700Z,14.30
2023-01-19T17:47:09.145Z,13.80
2023-01-19T17:49:39.607Z,13.30
2023-01-19T17:52:10.382Z,12.60
2023-01-19T17:54:40.809Z,10.90
2023-01-19T17:57:11.394Z,12.30
2023-01-19T17:59:43.784Z,12.30
2023-01-19T18:02:14.453Z,11.00
2023-01-19T18:04:45.443Z,11.60
2023-01-19T18:07:15.956Z,14.00
2023-01-19T18:09:46.375Z,15.80
2023-01-19T18:12:17.127Z,14.30
2023-01-19T18:14:47.552Z,12.30
2023-01-19T18:17:18.080Z,12.70
2023-01-19T18:19:49.113Z,13.20
2023-01-19T18:22:19.513Z,11.50
2023-01-19T18:24:50.105Z,11.90
2023-01-19T18:27:21.921Z,11.00
2023-01-19T18:29:53.045Z,12.00
2023-01-19T18:32:24.240Z,12.20
2023-01-19T18:34:55.663Z,12.00
2023-01-19T18:37:26.084Z,12.50
2023-01-19T18:40:04.352Z,12.30
2023-01-19T18:42:36.054Z,12.30
2023-01-19T18:45:07.839Z,12.60
2023-01-19T18:47:38.320Z,11.50
2023-01-19T18:50:10.306Z,11.70
2023-01-19T18:52:40.760Z,11.90
2023-01-19T18:55:12.063Z,12.10
2023-01-19T18:57:42.827Z,11.20
2023-01-19T19:00:15.396Z,11.80
2023-01-19T19:02:45.973Z,11.40
2023-01-19T19:05:16.383Z,12.00
2023-01-19T19:07:46.804Z,10.70
2023-01-19T19:10:17.972Z,12.40
2023-01-19T19:12:48.959Z,11.30
2023-01-19T19:15:19.439Z,12.70
2023-01-19T19:17:50.235Z,11.50
2023-01-19T19:20:23.302Z,11.60
2023-01-19T19:22:53.806Z,11.40
2023-01-19T19:25:24.601Z,13.40
2023-01-19T19:27:55.456Z,14.40
2023-01-19T19:30:26.121Z,14.60
2023-01-19T19:32:59.874Z,15.00
2023-01-19T19:35:30.393Z,18.40
2023-01-19T19:38:01.048Z,17.70
2023-01-19T19:40:31.525Z,18.10
2023-01-19T19:43:01.935Z,20.00
2023-01-19T19:45:32.462Z,18.20
2023-01-19T19:48:02.923Z,19.10
2023-01-19T19:50:35.425Z,19.60
2023-01-19T19:55:34.953Z,16.90
2023-01-19T19:58:05.397Z,26.60
2023-01-19T20:00:35.897Z,33.50
2023-01-19T20:03:13.404Z,25.50
2023-01-19T20:05:43.865Z,21.40
2023-01-19T20:08:14.681Z,20.30
2023-01-19T20:10:45.199Z,19.00
2023-01-19T20:13:20.005Z,20.50
2023-01-19T20:15:50.530Z,19.90
2023-01-19T20:18:21.085Z,18.90
2023-01-19T20:20:51.617Z,21.00
2023-01-19T20:23:22.113Z,23.40
2023-01-19T20:25:52.552Z,20.80
2023-01-19T20:28:22.999Z,20.20
2023-01-19T20:30:54.863Z,20.90
2023-01-19T20:33:26.169Z,19.90
2023-01-19T20:35:56.653Z,17.70
2023-01-19T20:38:27.121Z,17.70
2023-01-19T20:40:57.519Z,15.00
2023-01-19T20:43:27.981Z,16.30
2023-01-19T20:45:58.575Z,18.00
2023-01-19T20:48:30.162Z,17.90
2023-01-19T20:51:03.127Z,18.00
2023-01-19T20:53:34.854Z,19.10
2023-01-19T20:56:08.166Z,18.70
2023-01-19T20:58:39.085Z,18.70
2023-01-19T21:01:18.234Z,18.50
2023-01-19T21:03:49.675Z,19.50
2023-01-19T21:06:21.637Z,24.80
2023-01-19T21:08:52.380Z,20.50
2023-01-19T21:11:24.061Z,20.30
2023-01-19T21:13:56.691Z,21.20
2023-01-19T21:16:28.950Z,27.60
2023-01-19T21:18:59.805Z,20.50
2023-01-19T21:21:31.892Z,21.20
2023-01-19T21:24:04.369Z,21.40
2023-01-19T21:26:35.915Z,23.10
2023-01-19T21:29:06.679Z,24.60
2023-01-19T21:31:37.220Z,24.10
2023-01-19T21:34:07.882Z,22.20
2023-01-19T21:36:38.561Z,22.10
2023-01-19T21:39:10.231Z,20.50
2023-01-19T21:41:43.304Z,19.50
2023-01-19T21:44:14.808Z,19.20
2023-01-19T21:46:45.339Z,21.80
2023-01-19T21:49:19.992Z,18.50
2023-01-19T21:51:52.531Z,19.40
2023-01-19T21:56:52.029Z,17.60
2023-01-19T21:59:22.466Z,20.40
2023-01-19T22:01:53.138Z,20.10
2023-01-19T22:04:23.991Z,21.60
2023-01-19T22:06:54.435Z,21.30
2023-01-19T22:09:24.868Z,21.40
2023-01-19T22:11:55.346Z,19.80
2023-01-19T22:14:25.969Z,20.30
2023-01-19T22:16:56.492Z,20.00
2023-01-19T22:19:27.092Z,20.60
2023-01-19T22:21:57.596Z,21.30
2023-01-19T22:24:28.147Z,22.30
2023-01-19T22:26:58.570Z,20.40
2023-01-19T22:29:29.114Z,22.10
2023-01-19T22:31:59.503Z,18.40
2023-01-19T22:34:29.998Z,20.30
2023-01-19T22:37:00.872Z,18.20
2023-01-19T22:39:31.406Z,19.90
2023-01-19T22:42:01.860Z,22.40
2023-01-19T22:44:32.319Z,21.80
2023-01-19T22:47:02.746Z,21.80
2023-01-19T22:49:33.260Z,21.00
2023-01-19T22:52:03.652Z,19.90
2023-01-19T22:54:34.418Z,19.20
2023-01-19T22:57:06.946Z,20.00
2023-01-19T23:02:06.359Z,19.00
2023-01-19T23:04:37.234Z,21.10
2023-01-19T23:07:09.332Z,21.30
2023-01-19T23:09:40.325Z,21.40
2023-01-19T23:12:10.784Z,22.90
2023-01-19T23:14:41.380Z,22.60
2023-01-19T23:17:11.794Z,21.30
2023-01-19T23:19:42.220Z,21.20
2023-01-19T23:22:12.626Z,21.90
2023-01-19T23:24:43.151Z,22.80
2023-01-19T23:27:13.599Z,21.10
2023-01-19T23:29:44.069Z,20.70
2023-01-19T23:32:14.501Z,24.70
2023-01-19T23:34:45.107Z,23.90
2023-01-19T23:37:15.726Z,24.30
2023-01-19T23:39:46.141Z,23.30
2023-01-19T23:42:16.563Z,20.90
2023-01-19T23:44:46.972Z,20.00
2023-01-19T23:47:17.364Z,20.90
2023-01-19T23:49:47.819Z,21.50
2023-01-19T23:52:18.269Z,22.50
2023-01-19T23:54:48.746Z,20.80
2023-01-19T23:57:19.177Z,19.80
2023-01-19T23:59:49.789Z,19.20
